Time;durP1;ratioP1;P1;durP2;ratioP2;P2;SDS_P1;SDS_P2;PMS_P1;PMS_P2;Temp;Humidity;BMP_temperature;BMP_pressure;BME280_temperature;BME280_humidity;BME280_pressure;Samples;Min_cycle;Max_cycle;Signal;HPM_P1;HPM_P2
2023/03/25 00:01:12;;;;;;;16.30;12.90;;;;;;;13.09;62.66;100280.34;107721;1291;21986;-62
2023/03/25 00:03:41;;;;;;;16.50;13.00;;;;;;;13.10;62.47;100281.54;107753;1291;152267;-61
2023/03/25 00:06:07;;;;;;;15.10;12.10;;;;;;;13.11;62.18;100280.48;107672;1290;22000;-65
2023/03/25 00:08:41;;;;;;;15.40;12.80;;;;;;;13.13;62.28;100286.05;107832;1288;22047;-62
2023/03/25 00:11:07;;;;;;;14.50;12.60;;;;;;;13.15;62.80;100285.46;107698;1290;22029;-65
2023/03/25 00:13:33;;;;;;;14.90;12.50;;;;;;;13.20;62.62;100285.52;107906;1291;22011;-65
2023/03/25 00:16:03;;;;;;;15.20;12.70;;;;;;;13.15;62.84;100284.58;107978;1290;21990;-62
2023/03/25 00:18:32;;;;;;;14.20;11.60;;;;;;;13.13;62.75;100274.60;107875;1291;22040;-63
2023/03/25 00:20:59;;;;;;;13.30;11.50;;;;;;;13.13;63.43;100272.12;107871;1290;22004;-62
2023/03/25 00:23:25;;;;;;;13.20;11.40;;;;;;;13.12;64.31;100265.98;107755;1290;21997;-65
2023/03/25 00:25:52;;;;;;;14.00;11.50;;;;;;;13.25;63.42;100262.51;107823;1291;21995;-65
2023/03/25 00:28:18;;;;;;;14.10;11.00;;;;;;;13.33;63.02;100257.36;107695;1291;21985;-65
2023/03/25 00:30:46;;;;;;;13.40;10.60;;;;;;;13.35;62.46;100254.49;107692;1290;21997;-62
2023/03/25 00:33:12;;;;;;;12.80;10.60;;;;;;;13.36;62.37;100251.11;107910;1290;21996;-62
2023/03/25 00:35:43;;;;;;;13.60;11.30;;;;;;;13.27;63.25;100248.70;107795;1290;21995;-62
2023/03/25 00:38:11;;;;;;;13.30;11.00;;;;;;;13.16;64.64;100250.39;107894;1290;23078;-62
2023/03/25 00:40:37;;;;;;;13.90;11.00;;;;;;;13.11;64.60;100248.92;107863;1290;21999;-65
2023/03/25 00:43:08;;;;;;;13.10;10.50;;;;;;;13.09;64.49;100250.55;107782;1290;21992;-62
2023/03/25 00:45:35;;;;;;;11.60;9.80;;;;;;;13.10;64.22;100248.05;107790;1290;22090;-63
2023/03/25 00:48:01;;;;;;;11.70;9.50;;;;;;;13.13;63.76;100242.17;107791;1290;22001;-62
2023/03/25 00:50:26;;;;;;;10.60;9.30;;;;;;;13.17;63.56;100242.45;107769;1290;22004;-62
2023/03/25 00:52:58;;;;;;;12.60;10.20;;;;;;;13.19;64.79;100240.63;107770;1290;22003;-65
2023/03/25 00:55:23;;;;;;;11.60;9.70;;;;;;;13.20;64.42;100237.45;107860;1290;22074;-66
2023/03/25 00:57:49;;;;;;;12.20;9.80;;;;;;;13.20;64.16;100239.71;107844;1290;22045;-65
2023/03/25 01:00:20;;;;;;;11.40;9.20;;;;;;;13.20;64.08;100231.97;107794;1289;21986;-62
2023/03/25 01:02:52;;;;;;;11.90;9.20;;;;;;;13.23;63.59;100233.13;107758;1290;21986;-65
2023/03/25 01:05:20;;;;;;;10.50;9.00;;;;;;;13.26;63.61;100236.91;107850;1290;21989;-63
2023/03/25 01:07:48;;;;;;;12.50;9.90;;;;;;;13.30;64.15;100236.30;107837;1290;23726;-65
2023/03/25 01:10:14;;;;;;;12.30;9.30;;;;;;;13.27;64.55;100233.02;107894;1290;21987;-65
2023/03/25 01:12:40;;;;;;;13.60;9.90;;;;;;;13.26;64.53;100229.54;107853;1290;21980;-62
2023/03/25 01:15:06;;;;;;;11.70;9.70;;;;;;;13.22;66.56;100231.38;107923;1289;22007;-62
2023/03/25 01:17:35;;;;;;;14.50;11.00;;;;;;;13.20;66.78;100228.45;107915;1290;23181;-65
2023/03/25 01:20:01;;;;;;;11.50;9.30;;;;;;;13.18;66.89;100225.50;107880;1290;22002;-62
2023/03/25 01:22:27;;;;;;;12.90;9.80;;;;;;;13.20;68.33;100221.23;107873;1290;21999;-65
2023/03/25 01:24:53;;;;;;;12.40;10.50;;;;;;;13.23;67.74;100220.98;107920;1289;21985;-65
2023/03/25 01:27:19;;;;;;;12.50;10.60;;;;;;;13.21;68.71;100221.02;108012;1290;21994;-63
2023/03/25 01:29:45;;;;;;;14.30;10.70;;;;;;;13.22;68.64;100216.05;107988;1290;22079;-65
2023/03/25 01:32:11;;;;;;;14.90;11.30;;;;;;;13.26;67.62;100216.49;107813;1290;21991;-64
2023/03/25 01:34:38;;;;;;;13.80;10.90;;;;;;;13.25;68.32;100214.21;107730;1290;22009;-65
2023/03/25 01:37:05;;;;;;;14.40;11.30;;;;;;;13.26;68.36;100215.05;107762;1290;22006;-63
2023/03/25 01:39:30;;;;;;;12.90;10.10;;;;;;;13.27;68.45;100215.41;107746;1290;21992;-64
2023/03/25 01:41:56;;;;;;;13.10;10.50;;;;;;;13.30;67.90;100216.20;107712;1290;21997;-62
2023/03/25 01:44:22;;;;;;;13.30;10.50;;;;;;;13.30;67.86;100210.20;107836;1290;21996;-63
2023/03/25 01:46:51;;;;;;;13.50;11.40;;;;;;;13.33;67.47;100205.56;107745;1290;22003;-63
2023/03/25 01:49:25;;;;;;;14.10;11.30;;;;;;;13.37;67.64;100205.45;108022;1290;21988;-65
2023/03/25 01:52:00;;;;;;;15.40;12.20;;;;;;;13.38;69.31;100203.48;107775;1289;21993;-64
2023/03/25 01:54:26;;;;;;;14.20;12.50;;;;;;;13.38;69.32;100201.55;107839;1290;21992;-65
2023/03/25 01:56:52;;;;;;;13.90;11.00;;;;;;;13.39;68.42;100195.70;107702;1290;22375;-64
2023/03/25 01:59:19;;;;;;;14.70;12.00;;;;;;;13.38;70.08;100197.48;107766;1290;22000;-64
2023/03/25 02:01:45;;;;;;;15.50;12.00;;;;;;;13.37;69.74;100196.11;107949;1290;21990;-62
2023/03/25 02:04:12;;;;;;;14.30;11.60;;;;;;;13.35;69.92;100197.55;107762;1279;23074;-64
2023/03/25 02:06:58;;;;;;;14.30;11.30;;;;;;;13.37;68.82;100192.23;107890;1290;23732;-62
2023/03/25 02:09:26;;;;;;;15.70;12.00;;;;;;;13.31;68.38;100190.09;107728;1289;21984;-62
2023/03/25 02:11:53;;;;;;;14.50;10.90;;;;;;;13.28;68.39;100186.46;107729;1290;22000;-63
2023/03/25 02:14:21;;;;;;;15.30;12.00;;;;;;;13.27;68.74;100187.56;107804;1290;21988;-62
2023/03/25 02:17:13;;;;;;;14.80;11.90;;;;;;;13.25;68.11;100185.32;107812;1290;21989;-64
2023/03/25 02:19:51;;;;;;;13.80;11.70;;;;;;;13.19;69.37;100178.26;107849;1287;21966;-63
2023/03/25 02:22:46;;;;;;;16.80;12.10;;;;;;;13.17;67.85;100175.32;107971;1290;21994;-63
2023/03/25 02:25:21;;;;;;;16.20;11.70;;;;;;;13.13;67.53;100173.13;107858;1290;21992;-65
2023/03/25 02:27:53;;;;;;;15.60;12.10;;;;;;;13.09;67.45;100171.28;107732;1290;21995;-63
2023/03/25 02:30:56;;;;;;;14.90;12.40;;;;;;;13.08;67.75;100169.01;107796;1290;21989;-62
2023/03/25 02:34:20;;;;;;;14.70;11.50;;;;;;;13.07;67.29;100165.71;107892;1290;22219;-63
2023/03/25 02:37:09;;;;;;;16.50;11.20;;;;;;;13.06;66.92;100163.96;105762;1298;1002547;-64
2023/03/25 02:39:59;;;;;;;14.90;10.80;;;;;;;13.04;67.67;100163.30;107215;1298;21996;-64
2023/03/25 02:42:45;;;;;;;13.30;10.90;;;;;;;13.04;66.94;100157.85;107551;1290;21993;-63
2023/03/25 02:45:31;;;;;;;14.70;11.10;;;;;;;13.03;66.86;100158.05;107720;1290;21988;-64
2023/03/25 02:47:59;;;;;;;13.80;11.30;;;;;;;13.06;66.77;100159.23;104771;1290;1003463;-63
2023/03/25 02:50:32;;;;;;;14.80;11.50;;;;;;;13.07;66.75;100158.14;107746;1290;22169;-62
2023/03/25 02:52:59;;;;;;;14.80;11.50;;;;;;;13.02;66.38;100156.84;107694;1290;21990;-63
2023/03/25 02:55:25;;;;;;;14.20;11.10;;;;;;;13.02;66.39;100159.51;107795;1290;21997;-63
2023/03/25 02:57:53;;;;;;;14.20;10.80;;;;;;;12.99;66.00;100159.23;107739;1290;21993;-62
2023/03/25 03:00:27;;;;;;;13.60;11.50;;;;;;;13.01;65.88;100156.53;107802;1290;21997;-63
2023/03/25 03:02:59;;;;;;;13.20;10.50;;;;;;;13.01;65.63;100154.60;107848;1289;23725;-62
2023/03/25 03:05:26;;;;;;;15.80;11.70;;;;;;;12.98;66.49;100154.67;107891;1290;21957;-63
2023/03/25 03:08:22;;;;;;;15.40;11.10;;;;;;;12.94;66.10;100149.47;107807;1290;22101;-63
2023/03/25 03:11:21;;;;;;;13.80;11.50;;;;;;;12.93;66.44;100149.68;107669;1290;21986;-62
2023/03/25 03:13:56;;;;;;;13.60;10.40;;;;;;;12.92;66.28;100152.18;107638;1290;22008;-62
2023/03/25 03:16:31;;;;;;;18.70;11.80;;;;;;;12.94;65.82;100150.20;107672;1290;21990;-62
2023/03/25 03:19:45;;;;;;;13.60;10.60;;;;;;;12.91;65.76;100150.44;107705;1290;21990;-62
2023/03/25 03:22:41;;;;;;;15.10;10.70;;;;;;;12.91;65.23;100152.73;107518;1290;21994;-62
2023/03/25 03:25:13;;;;;;;14.30;10.10;;;;;;;12.88;65.14;100151.39;107575;1290;21997;-62
2023/03/25 03:27:45;;;;;;;16.50;11.10;;;;;;;12.85;65.48;100149.55;107676;1290;22024;-62
2023/03/25 03:30:21;;;;;;;13.40;10.00;;;;;;;12.87;64.68;100146.86;107654;1290;21993;-62
2023/03/25 03:33:20;;;;;;;12.50;10.20;;;;;;;12.94;63.89;100147.01;107714;1291;23621;-63
2023/03/25 03:36:06;;;;;;;14.80;11.10;;;;;;;12.95;63.85;100149.45;107774;1291;22090;-62
2023/03/25 03:38:38;;;;;;;15.90;9.90;;;;;;;12.93;64.09;100148.98;107776;1289;21992;-62
2023/03/25 03:41:09;;;;;;;13.90;10.20;;;;;;;12.91;63.80;100147.44;107695;1290;22470;-61
2023/03/25 03:43:53;;;;;;;14.80;10.10;;;;;;;12.89;63.69;100147.50;107638;1290;21998;-63
2023/03/25 03:46:37;;;;;;;15.40;10.70;;;;;;;12.87;63.52;100145.06;107651;1290;21984;-61
2023/03/25 03:49:05;;;;;;;17.30;10.40;;;;;;;12.85;63.29;100145.46;107752;1290;22003;-62
2023/03/25 03:51:36;;;;;;;14.40;10.20;;;;;;;12.83;63.40;100145.73;107736;1290;21993;-61
2023/03/25 03:54:04;;;;;;;13.80;9.90;;;;;;;12.81;63.02;100152.09;107821;1290;22602;-62
2023/03/25 03:56:40;;;;;;;13.30;10.20;;;;;;;12.79;62.92;100152.50;107614;1290;21998;-62
2023/03/25 03:59:47;;;;;;;12.50;10.00;;;;;;;12.78;62.79;100147.77;107757;1290;22033;-61
2023/03/25 04:02:27;;;;;;;13.60;9.50;;;;;;;12.76;62.97;100146.07;107734;1291;23715;-62
2023/03/25 04:04:52;;;;;;;10.90;8.70;;;;;;;12.74;62.78;100147.52;107667;1290;22033;-62
2023/03/25 04:07:21;;;;;;;12.20;9.80;;;;;;;12.71;63.07;100147.94;107727;1290;21995;-62
2023/03/25 04:10:05;;;;;;;12.30;8.70;;;;;;;12.68;63.55;100145.20;107903;1290;23069;-64
2023/03/25 04:12:34;;;;;;;14.00;9.00;;;;;;;12.67;63.87;100148.59;107920;1290;21957;-61
2023/03/25 04:15:05;;;;;;;13.30;9.70;;;;;;;12.62;64.35;100151.84;107653;1290;22001;-62
2023/03/25 04:17:31;;;;;;;14.20;9.40;;;;;;;12.63;63.93;100151.30;107697;1290;22084;-61
2023/03/25 04:20:05;;;;;;;14.20;9.90;;;;;;;12.63;64.11;100151.48;107621;1290;22036;-63
2023/03/25 04:22:32;;;;;;;16.70;9.50;;;;;;;12.71;63.52;100145.64;107656;1290;21997;-62
2023/03/25 04:24:59;;;;;;;19.50;10.50;;;;;;;12.77;63.89;100144.45;107660;1290;21991;-61
2023/03/25 04:27:28;;;;;;;14.00;10.40;;;;;;;12.83;63.95;100144.66;107683;1290;22464;-61
2023/03/25 04:29:56;;;;;;;15.50;10.40;;;;;;;12.86;64.53;100143.67;107701;1290;23718;-62
2023/03/25 04:32:22;;;;;;;17.80;10.50;;;;;;;12.89;64.33;100143.61;107622;1290;21990;-61
2023/03/25 04:34:57;;;;;;;16.20;9.70;;;;;;;12.92;64.57;100146.02;107984;1290;21991;-61
2023/03/25 04:37:26;;;;;;;13.90;9.30;;;;;;;12.95;64.40;100145.77;107751;1290;21995;-62
2023/03/25 04:39:58;;;;;;;13.30;9.00;;;;;;;12.97;64.14;100147.66;107772;1290;22031;-63
2023/03/25 04:42:31;;;;;;;13.70;8.90;;;;;;;12.98;64.86;100150.27;107734;1290;22483;-62
2023/03/25 04:44:58;;;;;;;11.80;8.50;;;;;;;13.05;65.11;100148.84;107860;1290;22001;-63
2023/03/25 04:47:29;;;;;;;14.40;9.10;;;;;;;13.06;64.87;100142.84;107830;1290;22001;-61
2023/03/25 04:49:56;;;;;;;13.80;8.30;;;;;;;13.08;65.70;100143.32;107689;1290;21993;-64
2023/03/25 04:52:21;;;;;;;13.20;9.70;;;;;;;13.14;65.57;100141.21;107931;1290;21989;-63
2023/03/25 04:54:48;;;;;;;12.60;8.30;;;;;;;13.22;66.34;100138.35;107632;1290;22010;-64
2023/03/25 04:57:14;;;;;;;13.70;8.80;;;;;;;13.28;67.07;100139.61;107666;1290;21995;-63
2023/03/25 04:59:41;;;;;;;12.20;8.40;;;;;;;13.30;67.80;100138.67;107664;1290;22003;-63
2023/03/25 05:02:12;;;;;;;13.00;8.50;;;;;;;13.34;67.42;100139.09;107691;1290;22021;-63
2023/03/25 05:04:40;;;;;;;12.20;8.10;;;;;;;13.36;67.80;100141.30;107643;1290;21966;-64
2023/03/25 05:07:07;;;;;;;10.80;7.40;;;;;;;13.35;68.28;100147.01;107733;1290;23638;-64
2023/03/25 05:09:33;;;;;;;10.90;7.30;;;;;;;13.36;67.86;100148.73;107652;1290;21987;-64
2023/03/25 05:11:59;;;;;;;11.40;6.70;;;;;;;13.34;68.01;100148.94;107749;1290;21987;-62
2023/03/25 05:14:25;;;;;;;7.90;5.70;;;;;;;13.36;70.09;100148.91;107775;1290;22052;-64
2023/03/25 05:16:50;;;;;;;9.50;5.50;;;;;;;13.45;67.94;100141.99;107727;1290;22005;-63
2023/03/25 05:19:18;;;;;;;8.40;5.50;;;;;;;13.51;70.07;100144.45;107839;1290;21992;-64
2023/03/25 05:21:43;;;;;;;9.10;5.80;;;;;;;13.58;71.88;100143.39;104839;1290;1002979;-63
2023/03/25 05:24:12;;;;;;;10.20;6.30;;;;;;;13.68;72.05;100136.58;107783;1290;21986;-64
2023/03/25 05:26:38;;;;;;;10.70;5.90;;;;;;;13.79;72.39;100130.08;107862;1290;21997;-64
2023/03/25 05:29:05;;;;;;;9.20;5.80;;;;;;;13.90;73.53;100128.70;107879;1290;22000;-65
2023/03/25 05:31:31;;;;;;;8.20;6.10;;;;;;;14.01;73.54;100123.96;107818;1290;23114;-62
2023/03/25 05:34:05;;;;;;;10.60;6.20;;;;;;;14.12;74.42;100120.81;106312;1290;1004129;-64
2023/03/25 05:36:31;;;;;;;8.90;5.60;;;;;;;14.27;73.79;100113.48;107778;1290;21994;-64
2023/03/25 05:38:58;;;;;;;8.20;5.50;;;;;;;14.43;73.54;100114.01;107790;1290;22005;-63
2023/03/25 05:41:31;;;;;;;9.50;5.70;;;;;;;14.51;76.34;100117.30;107718;1290;22002;-64
2023/03/25 05:43:59;;;;;;;9.90;5.40;;;;;;;14.65;77.38;100116.32;107692;1290;21995;-63
2023/03/25 05:46:25;;;;;;;9.50;5.30;;;;;;;14.80;76.71;100113.36;107773;1290;21992;-63
2023/03/25 05:48:51;;;;;;;9.60;5.20;;;;;;;14.95;77.18;100110.20;107818;1290;21993;-67
2023/03/25 05:51:20;;;;;;;8.20;5.00;;;;;;;15.14;76.11;100105.83;107784;1290;23765;-63
2023/03/25 05:53:50;;;;;;;8.90;5.00;;;;;;;15.33;76.21;100106.92;107738;1290;21994;-62
2023/03/25 05:56:19;;;;;;;8.50;4.70;;;;;;;15.52;74.88;100105.69;107781;1290;21990;-63
2023/03/25 05:58:46;;;;;;;11.20;4.90;;;;;;;15.65;75.01;100107.52;107729;1290;21996;-67
2023/03/25 06:01:14;;;;;;;7.00;4.90;;;;;;;15.81;74.39;100110.65;107768;1290;21989;-67
2023/03/25 06:03:41;;;;;;;8.50;4.30;;;;;;;15.99;73.25;100111.72;107717;1290;21988;-66
2023/03/25 06:06:13;;;;;;;7.60;4.70;;;;;;;16.11;73.94;100113.19;107740;1290;22001;-64
2023/03/25 06:08:40;;;;;;;9.10;5.40;;;;;;;16.27;73.91;100116.48;107755;1290;21993;-67
2023/03/25 06:11:14;;;;;;;10.30;4.40;;;;;;;16.43;72.23;100121.14;107688;1290;22012;-63
2023/03/25 06:13:40;;;;;;;7.60;3.90;;;;;;;16.55;71.58;100125.46;107712;1283;21993;-68
2023/03/25 06:16:08;;;;;;;7.20;3.70;;;;;;;16.69;71.01;100119.73;107671;1290;21997;-63
2023/03/25 06:18:38;;;;;;;4.60;3.20;;;;;;;16.81;69.85;100116.40;107725;1290;21994;-67
2023/03/25 06:21:07;;;;;;;7.00;3.40;;;;;;;16.88;68.30;100114.52;107713;1282;21988;-63
2023/03/25 06:23:34;;;;;;;7.30;4.60;;;;;;;16.90;67.42;100109.63;107748;1290;21990;-63
2023/03/25 06:26:00;;;;;;;5.40;3.30;;;;;;;16.93;66.84;100111.45;107683;1290;22000;-65
2023/03/25 06:28:26;;;;;;;5.00;2.90;;;;;;;16.93;66.64;100111.98;107719;1290;22003;-62
2023/03/25 06:30:52;;;;;;;7.30;3.40;;;;;;;16.97;66.65;100113.09;107677;1290;21996;-62
2023/03/25 06:33:38;;;;;;;4.00;3.10;;;;;;;16.97;66.42;100117.17;107775;1289;24103;-65
2023/03/25 06:36:06;;;;;;;5.90;3.40;;;;;;;17.06;66.24;100119.42;107850;1290;21987;-65
2023/03/25 06:38:33;;;;;;;7.20;3.80;;;;;;;17.12;66.78;100121.64;107916;1286;22003;-63
2023/03/25 06:40:59;;;;;;;5.30;2.80;;;;;;;17.15;65.92;100121.52;107888;1290;22177;-65
2023/03/25 06:43:26;;;;;;;6.20;3.10;;;;;;;17.21;65.59;100123.75;107865;1290;22106;-62
2023/03/25 06:45:55;;;;;;;12.60;2.80;;;;;;;17.39;64.48;100122.42;107885;1290;21986;-65
2023/03/25 06:48:22;;;;;;;6.00;2.90;;;;;;;17.53;64.08;100121.48;107854;1290;22045;-63
2023/03/25 06:50:49;;;;;;;5.90;3.10;;;;;;;17.72;64.62;100119.86;107851;1290;22014;-63
2023/03/25 06:53:20;;;;;;;4.60;2.60;;;;;;;17.83;62.78;100125.07;107895;1290;21987;-65
2023/03/25 06:55:46;;;;;;;7.10;3.00;;;;;;;17.88;61.66;100125.70;107893;1290;21987;-63
2023/03/25 06:58:12;;;;;;;4.70;2.20;;;;;;;18.03;60.41;100125.04;107921;1290;21987;-62
2023/03/25 07:00:37;;;;;;;8.40;2.60;;;;;;;18.04;58.64;100125.71;107864;1289;22004;-63
2023/03/25 07:03:03;;;;;;;5.40;2.70;;;;;;;18.33;59.01;100118.12;107857;1290;21988;-63
2023/03/25 07:05:29;;;;;;;5.80;2.00;;;;;;;18.42;57.72;100120.88;107859;1290;23742;-65
2023/03/25 07:07:57;;;;;;;6.90;2.90;;;;;;;18.48;56.42;100119.16;107952;1290;23784;-66
2023/03/25 07:10:23;;;;;;;6.40;2.40;;;;;;;18.67;56.96;100124.29;107738;1290;21990;-67
2023/03/25 07:12:49;;;;;;;7.10;3.30;;;;;;;18.82;56.95;100119.23;107847;1290;22004;-63
2023/03/25 07:15:15;;;;;;;11.50;3.80;;;;;;;18.97;56.86;100118.66;107889;1289;22006;-66
2023/03/25 07:17:47;;;;;;;6.50;3.00;;;;;;;19.01;54.91;100124.52;107891;1290;22025;-63
2023/03/25 07:20:14;;;;;;;12.20;3.20;;;;;;;19.05;54.83;100118.98;107917;1290;24088;-67
2023/03/25 07:22:41;;;;;;;8.80;3.00;;;;;;;19.08;54.12;100119.35;107231;1290;1002217;-67
2023/03/25 07:25:07;;;;;;;7.50;2.80;;;;;;;19.07;53.58;100118.00;107818;1290;22006;-63
2023/03/25 07:27:33;;;;;;;7.40;2.90;;;;;;;19.21;53.87;100113.58;107807;1290;24425;-66
2023/03/25 07:29:59;;;;;;;7.00;2.90;;;;;;;19.27;52.76;100109.16;107715;1290;21993;-66
2023/03/25 07:32:25;;;;;;;4.80;2.80;;;;;;;19.22;52.38;100107.07;107725;1290;22007;-62
2023/03/25 07:34:53;;;;;;;7.70;3.20;;;;;;;19.17;52.09;100106.83;107738;1290;22048;-66
2023/03/25 07:37:19;;;;;;;5.00;3.00;;;;;;;19.20;52.39;100097.77;107723;1290;21990;-66
2023/03/25 07:39:44;;;;;;;7.70;3.00;;;;;;;19.30;52.42;100094.24;107692;1290;21999;-67
2023/03/25 07:42:10;;;;;;;6.30;3.50;;;;;;;19.42;52.20;100095.00;107687;1290;21990;-68
2023/03/25 07:44:37;;;;;;;7.70;3.30;;;;;;;19.50;51.91;100089.63;107733;1290;21962;-63
2023/03/25 07:47:06;;;;;;;6.10;3.50;;;;;;;19.55;51.44;100084.36;107725;1290;22955;-67
2023/03/25 07:49:39;;;;;;;5.80;3.00;;;;;;;19.65;51.69;100088.96;107737;1290;21994;-67
2023/03/25 07:52:06;;;;;;;6.20;3.10;;;;;;;19.73;50.59;100089.43;107705;1290;22142;-63
2023/03/25 07:54:33;;;;;;;5.40;3.30;;;;;;;19.74;50.18;100087.95;107735;1290;21993;-67
2023/03/25 07:56:59;;;;;;;7.10;3.40;;;;;;;19.80;50.01;100087.26;107675;1290;21996;-68
2023/03/25 07:59:28;;;;;;;4.80;2.90;;;;;;;20.00;49.81;100077.48;107672;1290;21992;-67
2023/03/25 08:01:53;;;;;;;6.50;3.40;;;;;;;20.16;49.87;100078.50;107836;1290;22001;-67
2023/03/25 08:04:19;;;;;;;13.50;4.00;;;;;;;20.25;49.26;100079.09;107832;1290;21999;-63
2023/03/25 08:06:44;;;;;;;6.50;3.30;;;;;;;20.39;49.29;100074.87;107891;1289;22027;-63
2023/03/25 08:09:10;;;;;;;10.50;4.00;;;;;;;20.49;48.68;100070.92;107957;1290;21992;-68
2023/03/25 08:11:36;;;;;;;10.10;4.00;;;;;;;20.68;48.58;100060.73;107844;1290;21987;-68
2023/03/25 08:14:05;;;;;;;6.70;3.60;;;;;;;20.69;48.35;100059.76;107768;1290;22005;-63
2023/03/25 08:16:30;;;;;;;18.40;4.00;;;;;;;20.71;47.89;100060.93;107756;1290;21990;-63
2023/03/25 08:18:56;;;;;;;4.90;3.30;;;;;;;20.81;47.50;100060.87;107663;1290;21993;-64
2023/03/25 08:21:26;;;;;;;10.10;3.80;;;;;;;20.91;47.33;100056.02;107696;1290;22002;-68
2023/03/25 08:23:57;;;;;;;7.60;3.80;;;;;;;21.06;47.56;100057.41;107728;1290;21994;-64
2023/03/25 08:26:25;;;;;;;4.90;3.30;;;;;;;21.23;47.55;100050.83;107681;1290;21990;-67
2023/03/25 08:28:53;;;;;;;9.00;3.00;;;;;;;21.39;47.21;100051.66;107857;1290;21990;-67
2023/03/25 08:31:20;;;;;;;6.70;3.30;;;;;;;21.48;46.30;100046.06;107887;1290;21990;-63
2023/03/25 08:34:01;;;;;;;7.70;4.00;;;;;;;21.62;46.17;100046.68;107796;1290;21992;-67
2023/03/25 08:36:27;;;;;;;5.10;3.10;;;;;;;21.80;46.01;100042.98;107903;1290;21995;-63
2023/03/25 08:38:53;;;;;;;5.10;3.00;;;;;;;21.88;45.12;100038.95;107844;1286;22026;-68
2023/03/25 08:41:19;;;;;;;4.60;2.70;;;;;;;21.94;44.90;100032.15;107815;1290;21987;-63
2023/03/25 08:43:45;;;;;;;4.50;2.90;;;;;;;21.71;43.44;100032.16;107843;1290;21992;-63
2023/03/25 08:46:10;;;;;;;7.40;3.30;;;;;;;21.79;43.99;100029.66;107835;1280;21988;-67
2023/03/25 08:48:36;;;;;;;4.70;2.80;;;;;;;21.85;43.57;100028.73;107885;1290;22008;-63
2023/03/25 08:51:06;;;;;;;8.80;3.60;;;;;;;21.87;43.37;100031.30;107843;1290;22027;-67
2023/03/25 08:53:33;;;;;;;5.10;2.70;;;;;;;21.81;42.66;100031.50;107886;1290;22003;-68
2023/03/25 08:55:59;;;;;;;5.30;2.90;;;;;;;21.81;43.23;100033.81;107903;1290;22006;-65
2023/03/25 08:58:25;;;;;;;6.20;2.70;;;;;;;21.95;42.21;100033.48;107874;1290;22002;-62
2023/03/25 09:00:53;;;;;;;4.90;2.60;;;;;;;21.86;42.09;100037.27;107838;1289;21998;-68
2023/03/25 09:03:20;;;;;;;10.20;3.00;;;;;;;21.87;41.89;100036.67;107957;1289;23057;-68
2023/03/25 09:05:49;;;;;;;6.60;2.80;;;;;;;21.99;42.13;100042.11;107884;1290;21975;-69
2023/03/25 09:08:16;;;;;;;7.10;3.60;;;;;;;22.11;42.00;100038.48;107871;1289;21999;-63
2023/03/25 09:10:42;;;;;;;7.30;3.00;;;;;;;22.01;41.72;100038.41;107845;1290;21984;-65
2023/03/25 09:13:08;;;;;;;4.30;2.80;;;;;;;22.09;41.54;100036.84;107809;1290;22342;-64
2023/03/25 09:15:34;;;;;;;7.00;3.10;;;;;;;22.09;40.99;100040.82;107832;1290;21993;-63
2023/03/25 09:18:03;;;;;;;7.20;3.10;;;;;;;21.93;41.39;100035.41;107798;1290;22047;-63
2023/03/25 09:20:30;;;;;;;4.60;2.60;;;;;;;22.09;41.85;100022.20;107824;1290;21992;-68
2023/03/25 09:22:56;;;;;;;9.80;2.90;;;;;;;22.13;41.49;100019.08;107810;1290;22940;-62
2023/03/25 09:25:28;;;;;;;6.20;3.30;;;;;;;22.20;41.51;100018.65;107812;1290;21990;-62
2023/03/25 09:27:55;;;;;;;5.60;2.60;;;;;;;22.22;40.96;100004.15;107767;1290;22273;-67
2023/03/25 09:30:20;;;;;;;4.60;2.70;;;;;;;22.27;40.99;100004.58;107786;1290;22028;-64
2023/03/25 09:32:48;;;;;;;6.70;3.00;;;;;;;22.40;41.33;99999.74;107814;1290;21993;-68
2023/03/25 09:35:14;;;;;;;6.50;2.80;;;;;;;22.55;41.18;99991.64;107747;1290;22007;-68
2023/03/25 09:37:40;;;;;;;7.50;2.70;;;;;;;22.78;40.72;99988.30;107959;1290;22012;-62
2023/03/25 09:40:06;;;;;;;9.30;4.40;;;;;;;22.88;39.82;99985.63;107803;1290;21989;-68
2023/03/25 09:42:54;;;;;;;4.90;2.70;;;;;;;23.14;39.74;99978.77;107779;1290;21989;-68
2023/03/25 09:45:42;;;;;;;7.60;2.80;;;;;;;23.05;38.87;99977.62;107031;1289;1003148;-68
2023/03/25 09:48:36;;;;;;;6.30;2.50;;;;;;;23.04;38.35;99974.65;107845;1290;21988;-62
2023/03/25 09:51:20;;;;;;;14.40;2.80;;;;;;;23.27;38.48;99972.52;107828;1290;22033;-69
2023/03/25 09:53:49;;;;;;;8.70;2.50;;;;;;;23.45;38.49;99968.56;107782;1290;22002;-69
2023/03/25 09:56:18;;;;;;;4.70;2.00;;;;;;;23.47;37.84;99964.58;107825;1290;21988;-68
2023/03/25 09:59:03;;;;;;;5.40;2.20;;;;;;;23.54;37.61;99964.51;107838;1290;23859;-62
2023/03/25 10:02:03;;;;;;;7.40;2.40;;;;;;;23.63;38.16;99964.56;107776;1290;22104;-68
2023/03/25 10:04:56;;;;;;;5.30;2.00;;;;;;;23.76;38.31;99965.75;107832;1290;22083;-62
2023/03/25 10:07:38;;;;;;;6.10;2.00;;;;;;;23.86;37.66;99959.29;107803;1290;21995;-62
2023/03/25 10:10:03;;;;;;;9.30;3.10;;;;;;;23.96;38.36;99950.14;107909;1283;22000;-62
2023/03/25 10:13:00;;;;;;;7.20;2.80;;;;;;;24.02;37.95;99951.33;107853;1290;22000;-68
2023/03/25 10:15:29;;;;;;;11.40;5.10;;;;;;;24.17;38.31;99946.77;107698;1290;22587;-68
2023/03/25 10:18:05;;;;;;;6.80;2.20;;;;;;;24.21;38.05;99944.67;107803;1290;22007;-67
2023/03/25 10:20:38;;;;;;;7.80;2.60;;;;;;;24.23;38.01;99940.60;107858;1290;22001;-68
2023/03/25 10:23:08;;;;;;;6.40;2.10;;;;;;;24.29;37.90;99943.38;107858;1290;21999;-67
2023/03/25 10:25:37;;;;;;;7.50;2.70;;;;;;;24.36;37.61;99934.96;107890;1290;22037;-63
2023/03/25 10:28:04;;;;;;;4.40;2.10;;;;;;;24.34;37.18;99925.25;107813;1290;22010;-68
2023/03/25 10:30:41;;;;;;;4.40;2.30;;;;;;;24.40;37.56;99923.88;107825;1290;22050;-63
2023/03/25 10:33:16;;;;;;;12.60;2.70;;;;;;;24.51;37.41;99918.73;107804;1290;22003;-68
2023/03/25 10:35:46;;;;;;;4.80;2.00;;;;;;;24.63;37.53;99911.70;107855;1286;21990;-68
2023/03/25 10:38:17;;;;;;;4.90;2.00;;;;;;;24.53;36.79;99908.15;107876;1290;22000;-64
2023/03/25 10:40:48;;;;;;;6.90;2.40;;;;;;;24.54;36.88;99907.16;107820;1279;23762;-68
2023/03/25 10:43:34;;;;;;;6.90;2.50;;;;;;;24.50;36.57;99904.24;107800;1290;21990;-62
2023/03/25 10:46:06;;;;;;;5.30;1.90;;;;;;;24.38;36.61;99899.25;107764;1290;21994;-62
2023/03/25 10:48:33;;;;;;;6.30;2.40;;;;;;;24.45;36.60;99897.70;107804;1290;22004;-67
2023/03/25 10:51:05;;;;;;;6.60;2.30;;;;;;;24.48;36.36;99890.27;107748;1290;21996;-68
2023/03/25 10:53:34;;;;;;;5.90;2.60;;;;;;;24.48;36.08;99891.83;107785;1290;22012;-61
2023/03/25 10:56:08;;;;;;;6.90;2.90;;;;;;;24.42;35.93;99895.42;107816;1290;22035;-62
2023/03/25 10:58:36;;;;;;;7.00;2.60;;;;;;;24.42;36.09;99890.55;107820;1290;23622;-66
2023/03/25 11:01:16;;;;;;;8.00;2.60;;;;;;;24.31;35.86;99890.28;107822;1290;21994;-67
2023/03/25 11:04:04;;;;;;;7.20;2.10;;;;;;;24.20;35.72;99884.33;107807;1290;21988;-68
2023/03/25 11:06:31;;;;;;;15.10;2.70;;;;;;;24.34;36.41;99881.48;107820;1290;21977;-62
2023/03/25 11:09:18;;;;;;;7.00;2.30;;;;;;;24.43;36.53;99883.81;107855;1290;22000;-65
2023/03/25 11:11:44;;;;;;;7.50;2.70;;;;;;;24.44;35.96;99886.80;107817;1290;22254;-61
2023/03/25 11:14:11;;;;;;;12.00;2.60;;;;;;;24.24;35.80;99883.72;107051;1290;1002101;-67
2023/03/25 11:16:45;;;;;;;9.20;2.20;;;;;;;24.29;36.04;99884.57;107763;1290;21995;-66
2023/03/25 11:19:26;;;;;;;6.60;2.50;;;;;;;24.07;35.24;99885.20;107802;1290;22032;-67
2023/03/25 11:21:54;;;;;;;7.70;2.70;;;;;;;23.97;35.73;99872.26;107869;1290;23734;-62
2023/03/25 11:24:29;;;;;;;8.50;2.70;;;;;;;23.91;36.00;99874.19;107855;1290;21993;-63
2023/03/25 11:26:55;;;;;;;6.70;2.60;;;;;;;23.99;36.18;99867.30;107847;1290;22006;-67
2023/03/25 11:29:24;;;;;;;6.50;2.70;;;;;;;23.97;36.43;99864.73;107788;1290;22003;-61